createdAt,value
2022-09-22T00:00:27.294Z,34.90
2022-09-22T00:05:32.846Z,32.22
2022-09-22T00:10:38.455Z,34.75
2022-09-22T00:15:48.520Z,32.30
2022-09-22T00:20:53.776Z,30.58
2022-09-22T00:25:59.125Z,24.17
2022-09-22T00:31:11.411Z,28.50
2022-09-22T00:36:18.320Z,27.10
2022-09-22T00:41:31.497Z,26.55
2022-09-22T00:46:37.091Z,26.33
2022-09-22T00:51:45.492Z,25.13
2022-09-22T00:56:57.374Z,20.70
2022-09-22T01:02:04.832Z,19.77
2022-09-22T01:07:11.198Z,18.45
2022-09-22T01:12:16.830Z,16.40
2022-09-22T01:17:51.648Z,14.52
2022-09-22T01:23:28.455Z,14.45
2022-09-22T01:28:45.921Z,13.18
2022-09-22T01:33:51.987Z,13.38
2022-09-22T01:54:41.470Z,8.38
2022-09-22T01:59:53.611Z,8.95
2022-09-22T02:05:04.765Z,9.23
2022-09-22T02:10:14.884Z,10.25
2022-09-22T02:15:40.696Z,8.88
2022-09-22T02:20:47.094Z,10.45
2022-09-22T02:25:53.985Z,10.18
2022-09-22T02:31:20.422Z,10.07
2022-09-22T02:36:45.917Z,9.85
2022-09-22T02:42:11.156Z,9.40
2022-09-22T02:47:42.760Z,10.02
2022-09-22T02:52:48.295Z,9.00
2022-09-22T02:57:53.806Z,7.85
2022-09-22T03:02:59.211Z,8.93
2022-09-22T03:08:05.137Z,8.90
2022-09-22T03:13:16.481Z,10.52
2022-09-22T03:18:22.514Z,9.13
2022-09-22T03:23:28.575Z,9.70
2022-09-22T03:28:34.104Z,9.98
2022-09-22T03:33:40.325Z,10.75
2022-09-22T03:38:45.933Z,9.30
2022-09-22T03:43:52.316Z,9.40
2022-09-22T03:48:58.558Z,9.02
2022-09-22T03:54:04.942Z,9.55
2022-09-22T03:59:12.112Z,10.10
2022-09-22T04:04:17.782Z,9.45
2022-09-22T04:14:28.963Z,8.35
2022-09-22T04:24:46.135Z,10.68
2022-09-22T04:29:52.134Z,9.38
2022-09-22T04:34:57.821Z,9.80
2022-09-22T04:45:09.732Z,9.67
2022-09-22T04:50:16.703Z,10.73
2022-09-22T04:55:23.884Z,9.55
2022-09-22T05:00:31.760Z,10.63
2022-09-22T05:05:37.496Z,9.65
2022-09-22T05:10:44.166Z,9.50
2022-09-22T05:15:49.815Z,9.95
2022-09-22T05:26:00.467Z,10.30
2022-09-22T05:31:06.598Z,11.35
2022-09-22T05:36:12.457Z,8.88
2022-09-22T05:41:18.740Z,7.88
2022-09-22T05:46:24.496Z,6.75
2022-09-22T05:51:29.873Z,7.43
2022-09-22T05:56:36.597Z,10.05
2022-09-22T06:01:44.185Z,9.63
2022-09-22T06:07:15.438Z,8.95
2022-09-22T06:12:21.820Z,9.77
2022-09-22T06:17:27.351Z,11.27
2022-09-22T06:22:32.864Z,12.90
2022-09-22T06:27:38.731Z,8.82
2022-09-22T06:32:45.613Z,13.73
2022-09-22T06:37:58.471Z,10.93
2022-09-22T06:43:14.029Z,14.35
2022-09-22T06:48:21.051Z,19.13
2022-09-22T06:53:27.700Z,15.10
2022-09-22T06:58:52.359Z,12.60
2022-09-22T07:03:58.189Z,10.90
2022-09-22T07:14:10.211Z,10.75
2022-09-22T07:19:17.044Z,11.98
2022-09-22T07:24:22.435Z,10.82
2022-09-22T07:34:33.776Z,13.38
2022-09-22T07:39:39.515Z,17.27
2022-09-22T07:45:03.138Z,21.52
2022-09-22T07:50:09.241Z,16.33
2022-09-22T07:55:14.995Z,17.25
2022-09-22T08:00:20.876Z,20.05
2022-09-22T08:05:28.724Z,18.55
2022-09-22T08:10:37.434Z,20.60
2022-09-22T08:15:43.950Z,17.83
2022-09-22T08:20:49.475Z,16.35
2022-09-22T08:31:01.731Z,15.20
2022-09-22T08:36:07.648Z,15.98
2022-09-22T08:41:27.097Z,14.63
2022-09-22T08:46:48.108Z,15.38
2022-09-22T08:52:05.693Z,14.43
2022-09-22T08:57:29.562Z,11.50
2022-09-22T09:02:57.322Z,8.70
2022-09-22T09:08:35.287Z,10.65
2022-09-22T09:14:23.904Z,11.00
2022-09-22T09:19:42.236Z,10.30
2022-09-22T09:25:27.811Z,9.57
2022-09-22T09:31:10.483Z,9.30
2022-09-22T09:36:25.600Z,10.77
2022-09-22T09:41:38.211Z,12.25
2022-09-22T09:47:19.087Z,12.70
2022-09-22T09:52:28.515Z,13.27
2022-09-22T09:57:34.976Z,9.95
2022-09-22T10:02:51.324Z,10.75
2022-09-22T10:08:00.788Z,11.48
2022-09-22T10:13:06.880Z,9.45
2022-09-22T10:18:41.814Z,8.30
2022-09-22T10:23:50.507Z,7.97
2022-09-22T10:29:14.411Z,6.28
2022-09-22T10:39:56.212Z,6.00
2022-09-22T10:45:18.138Z,7.72
2022-09-22T10:50:43.391Z,6.00
2022-09-22T10:56:18.963Z,8.50
2022-09-22T11:01:40.626Z,6.20
2022-09-22T11:07:47.552Z,8.55
2022-09-22T11:13:13.474Z,7.53
2022-09-22T11:18:39.653Z,6.93
2022-09-22T11:24:07.485Z,7.68
2022-09-22T11:29:31.831Z,5.80
2022-09-22T11:34:57.729Z,7.82
2022-09-22T11:45:49.933Z,8.02
2022-09-22T11:51:04.067Z,8.98
2022-09-22T11:56:31.173Z,9.20
2022-09-22T12:01:41.977Z,9.30
2022-09-22T12:06:52.224Z,8.82
2022-09-22T12:12:00.630Z,9.65
2022-09-22T12:17:25.117Z,8.88
2022-09-22T12:22:54.991Z,8.40
2022-09-22T12:28:00.957Z,8.98
2022-09-22T12:33:06.937Z,8.57
2022-09-22T12:38:15.997Z,7.93
2022-09-22T12:43:25.924Z,8.73
2022-09-22T12:48:35.696Z,8.02
2022-09-22T12:53:43.791Z,8.80
2022-09-22T12:58:49.980Z,7.28
2022-09-22T13:04:05.112Z,9.45
2022-09-22T13:09:20.786Z,8.77
2022-09-22T13:15:00.198Z,8.48
2022-09-22T13:20:33.342Z,7.57
2022-09-22T13:25:39.442Z,8.82
2022-09-22T13:30:47.507Z,9.45
2022-09-22T13:36:22.632Z,10.93
2022-09-22T13:41:38.839Z,11.70
2022-09-22T13:46:47.825Z,25.50
2022-09-22T13:52:06.488Z,11.48
2022-09-22T13:57:26.232Z,11.13
2022-09-22T14:02:33.700Z,12.23
2022-09-22T14:07:55.192Z,13.48
2022-09-22T14:13:02.569Z,11.55
2022-09-22T14:18:21.171Z,12.00
2022-09-22T14:23:35.229Z,11.80
2022-09-22T14:28:45.970Z,11.93
2022-09-22T14:33:57.584Z,11.45
2022-09-22T14:39:09.962Z,11.73
2022-09-22T14:44:54.154Z,10.48
2022-09-22T14:50:29.827Z,11.45
2022-09-22T14:55:48.172Z,11.07
2022-09-22T15:01:19.958Z,9.63
2022-09-22T15:06:26.699Z,9.50
2022-09-22T15:11:52.780Z,9.45
2022-09-22T15:17:18.069Z,9.70
2022-09-22T15:22:25.758Z,10.30
2022-09-22T15:27:31.758Z,10.80
2022-09-22T15:32:39.081Z,10.82
2022-09-22T15:37:51.776Z,10.18
2022-09-22T15:43:12.211Z,9.55
2022-09-22T15:48:41.420Z,10.10
2022-09-22T15:53:47.150Z,10.52
2022-09-22T16:04:01.778Z,10.02
2022-09-22T16:09:07.652Z,11.25
2022-09-22T16:14:13.519Z,12.13
2022-09-22T16:19:19.397Z,11.88
2022-09-22T16:29:32.958Z,10.85
2022-09-22T16:39:44.478Z,9.98
2022-09-22T16:44:50.038Z,9.90
2022-09-22T16:49:57.329Z,9.02
2022-09-22T16:55:03.438Z,10.15
2022-09-22T17:00:11.190Z,8.68
2022-09-22T17:05:16.927Z,8.43
2022-09-22T17:15:27.684Z,6.97
2022-09-22T17:20:33.454Z,5.13
2022-09-22T17:25:39.783Z,7.55
2022-09-22T17:30:45.443Z,7.15
2022-09-22T17:35:50.729Z,9.75
2022-09-22T17:41:08.953Z,8.45
2022-09-22T17:46:19.324Z,9.52
2022-09-22T17:51:59.358Z,12.07
2022-09-22T17:57:04.700Z,10.15
2022-09-22T18:02:15.652Z,12.65
2022-09-22T18:07:26.600Z,9.77
2022-09-22T18:12:33.656Z,10.40
2022-09-22T18:17:43.090Z,11.98
2022-09-22T18:22:51.732Z,15.05
2022-09-22T18:27:58.023Z,10.30
2022-09-22T18:33:03.784Z,10.63
2022-09-22T18:38:09.269Z,11.95
2022-09-22T18:43:14.966Z,16.77
2022-09-22T18:48:20.582Z,13.98
2022-09-22T18:53:26.464Z,15.30
2022-09-22T19:03:37.276Z,13.13
2022-09-22T19:08:43.269Z,12.00
2022-09-22T19:13:49.726Z,16.17
2022-09-22T19:18:55.385Z,15.55
2022-09-22T19:24:00.819Z,17.80
2022-09-22T19:29:07.767Z,15.82
2022-09-22T19:34:14.299Z,15.98
2022-09-22T19:39:19.868Z,17.45
2022-09-22T19:44:25.712Z,18.17
2022-09-22T19:49:31.707Z,18.75
2022-09-22T19:54:37.110Z,19.48
2022-09-22T19:59:42.813Z,20.40
2022-09-22T20:04:48.636Z,18.05
2022-09-22T20:09:53.946Z,21.23
2022-09-22T20:20:05.122Z,16.33
2022-09-22T20:25:25.888Z,21.75
2022-09-22T20:30:31.423Z,23.90
2022-09-22T20:35:37.330Z,21.25
2022-09-22T20:40:43.401Z,24.58
2022-09-22T20:45:49.061Z,24.15
2022-09-22T20:51:02.735Z,22.58
2022-09-22T20:56:13.493Z,23.20
2022-09-22T21:01:20.039Z,18.35
2022-09-22T21:06:26.145Z,23.08
2022-09-22T21:11:32.454Z,22.15
2022-09-22T21:16:40.469Z,21.95
2022-09-22T21:21:46.222Z,22.00
2022-09-22T21:26:51.668Z,20.92
2022-09-22T21:37:03.683Z,23.30
2022-09-22T21:42:09.282Z,22.58
2022-09-22T21:47:14.680Z,22.48
2022-09-22T21:52:19.952Z,19.57
2022-09-22T21:57:25.458Z,20.13
2022-09-22T22:02:50.667Z,21.13
2022-09-22T22:07:56.782Z,21.43
2022-09-22T22:13:05.191Z,20.02
2022-09-22T22:18:10.520Z,18.88
2022-09-22T22:23:16.147Z,18.73
2022-09-22T22:28:22.127Z,18.90
2022-09-22T22:38:33.319Z,36.45
2022-09-22T22:43:39.755Z,28.83
2022-09-22T22:48:50.660Z,35.63
2022-09-22T22:53:59.693Z,29.38
2022-09-22T22:59:05.171Z,26.33
2022-09-22T23:04:13.030Z,20.35
2022-09-22T23:09:20.006Z,25.63
2022-09-22T23:14:25.518Z,21.40
2022-09-22T23:19:31.169Z,23.45
2022-09-22T23:24:36.519Z,25.20
2022-09-22T23:29:42.075Z,25.77
2022-09-22T23:34:47.415Z,23.65
2022-09-22T23:39:52.798Z,24.65
2022-09-22T23:44:58.128Z,23.57
2022-09-22T23:50:03.932Z,24.50
2022-09-22T23:55:09.759Z,17.90
